createdAt,value
2023-02-21T00:01:58.080Z,73.27
2023-02-21T00:07:33.989Z,73.46
2023-02-21T00:13:02.023Z,73.62
2023-02-21T00:18:32.143Z,73.62
2023-02-21T00:23:56.508Z,73.71
2023-02-21T00:29:23.358Z,73.92
2023-02-21T00:35:08.010Z,74.03
2023-02-21T00:40:44.863Z,74.32
2023-02-21T00:46:25.244Z,74.62
2023-02-21T00:51:51.287Z,74.84
2023-02-21T00:57:15.361Z,74.98
2023-02-21T01:02:41.132Z,75.11
2023-02-21T01:08:14.524Z,75.21
2023-02-21T01:13:37.889Z,75.37
2023-02-21T01:19:04.213Z,75.80
2023-02-21T01:24:39.535Z,76.29
2023-02-21T01:30:01.794Z,76.59
2023-02-21T01:35:25.647Z,76.74
2023-02-21T01:40:48.502Z,76.93
2023-02-21T01:46:49.341Z,77.44
2023-02-21T01:52:13.546Z,77.86
2023-02-21T01:57:41.978Z,78.15
2023-02-21T02:03:14.129Z,78.85
2023-02-21T02:08:42.580Z,79.31
2023-02-21T02:14:34.707Z,79.68
2023-02-21T02:20:33.043Z,79.78
2023-02-21T02:26:38.179Z,80.26
2023-02-21T02:32:20.176Z,80.44
2023-02-21T02:37:37.407Z,80.45
2023-02-21T02:43:21.843Z,80.25
2023-02-21T02:48:36.059Z,80.29
2023-02-21T02:53:41.570Z,80.26
2023-02-21T02:58:56.482Z,80.52
2023-02-21T03:04:41.804Z,80.36
2023-02-21T03:10:29.412Z,80.65
2023-02-21T03:16:07.525Z,80.67
2023-02-21T03:21:28.690Z,80.70
2023-02-21T03:27:21.567Z,80.62
2023-02-21T03:32:48.430Z,80.90
2023-02-21T03:38:27.116Z,80.78
2023-02-21T03:43:45.019Z,80.75
2023-02-21T03:48:52.476Z,80.86
2023-02-21T03:54:02.776Z,81.26
2023-02-21T03:59:17.053Z,81.28
2023-02-21T04:04:43.695Z,81.25
2023-02-21T04:09:51.903Z,81.54
2023-02-21T04:15:10.712Z,81.47
2023-02-21T04:20:16.777Z,81.65
2023-02-21T04:25:26.749Z,81.62
2023-02-21T04:30:37.553Z,81.50
2023-02-21T04:35:55.239Z,81.33
2023-02-21T04:41:04.174Z,81.27
2023-02-21T04:46:10.897Z,80.96
2023-02-21T04:51:31.071Z,80.86
2023-02-21T04:56:45.875Z,81.03
2023-02-21T05:01:51.495Z,81.36
2023-02-21T05:07:06.299Z,81.95
2023-02-21T05:12:31.180Z,82.17
2023-02-21T05:17:39.522Z,83.04
2023-02-21T05:22:44.346Z,82.92
2023-02-21T05:27:50.260Z,83.31
2023-02-21T05:32:55.920Z,83.52
2023-02-21T05:38:05.868Z,83.98
2023-02-21T05:43:12.086Z,84.42
2023-02-21T05:48:20.422Z,84.73
2023-02-21T05:53:28.790Z,84.22
2023-02-21T05:59:37.982Z,84.09
2023-02-21T06:06:06.462Z,83.86
2023-02-21T06:12:32.616Z,83.41
2023-02-21T06:18:58.363Z,82.86
2023-02-21T06:25:17.433Z,82.37
2023-02-21T06:30:48.726Z,82.14
2023-02-21T06:35:58.095Z,82.15
2023-02-21T06:41:08.560Z,82.17
2023-02-21T06:46:39.837Z,82.40
2023-02-21T06:51:54.317Z,82.67
2023-02-21T06:57:05.996Z,82.88
2023-02-21T07:02:18.885Z,82.98
2023-02-21T07:07:43.953Z,82.80
2023-02-21T07:13:11.028Z,82.60
2023-02-21T07:18:38.965Z,82.37
2023-02-21T07:23:48.362Z,82.20
2023-02-21T07:28:53.761Z,81.80
2023-02-21T07:34:02.076Z,81.53
2023-02-21T07:39:18.951Z,81.23
2023-02-21T07:44:43.294Z,82.35
2023-02-21T07:50:01.564Z,82.95
2023-02-21T07:55:16.377Z,83.36
2023-02-21T08:00:25.822Z,83.52
2023-02-21T08:05:55.809Z,83.83
2023-02-21T08:11:05.872Z,83.35
2023-02-21T08:16:13.931Z,83.17
2023-02-21T08:21:19.069Z,82.91
2023-02-21T08:26:24.189Z,82.52
2023-02-21T08:31:29.281Z,82.12
2023-02-21T08:36:42.706Z,82.08
2023-02-21T08:41:52.892Z,83.42
2023-02-21T08:46:59.240Z,84.98
2023-02-21T08:52:04.387Z,86.23
2023-02-21T08:57:18.782Z,86.42
2023-02-21T09:02:33.237Z,85.92
2023-02-21T09:07:42.373Z,84.13
2023-02-21T09:12:50.403Z,84.12
2023-02-21T09:17:56.271Z,84.50
2023-02-21T09:23:00.530Z,84.88
2023-02-21T09:28:11.018Z,84.93
2023-02-21T09:33:24.852Z,83.90
2023-02-21T09:38:31.587Z,82.18
2023-02-21T09:43:48.875Z,80.85
2023-02-21T09:48:53.554Z,80.27
2023-02-21T09:53:58.858Z,78.84
2023-02-21T09:59:04.222Z,77.73
2023-02-21T10:04:35.735Z,75.76
2023-02-21T10:10:03.928Z,75.40
2023-02-21T10:15:42.435Z,73.95
2023-02-21T10:20:55.239Z,72.10
2023-02-21T10:26:07.773Z,71.17
2023-02-21T10:31:21.906Z,70.82
2023-02-21T10:36:31.057Z,70.65
2023-02-21T10:42:03.678Z,67.44
2023-02-21T10:48:14.669Z,67.71
2023-02-21T10:53:48.393Z,69.96
2023-02-21T10:59:11.845Z,72.42
2023-02-21T11:04:59.282Z,73.55
2023-02-21T11:10:55.093Z,75.74
2023-02-21T11:16:20.109Z,79.08
2023-02-21T11:21:48.720Z,81.10
2023-02-21T11:26:57.556Z,81.37
2023-02-21T11:32:26.616Z,80.63
2023-02-21T11:38:28.167Z,78.23
2023-02-21T11:43:57.489Z,76.36
2023-02-21T11:50:02.225Z,76.08
2023-02-21T11:56:02.637Z,74.33
2023-02-21T12:01:44.103Z,72.15
2023-02-21T12:07:36.585Z,70.83
2023-02-21T12:13:46.286Z,71.45
2023-02-21T12:20:15.627Z,70.68
2023-02-21T12:26:59.749Z,71.16
2023-02-21T12:33:26.058Z,72.32
2023-02-21T12:39:40.501Z,72.04
2023-02-21T12:46:13.909Z,71.21
2023-02-21T12:51:45.126Z,70.45
2023-02-21T12:57:14.055Z,70.92
2023-02-21T13:03:28.068Z,67.58
2023-02-21T13:15:38.188Z,65.97
2023-02-21T13:21:39.796Z,65.47
2023-02-21T13:28:05.751Z,64.76
2023-02-21T13:40:55.651Z,63.42
2023-02-21T13:47:17.178Z,63.82
2023-02-21T13:53:13.513Z,64.20
2023-02-21T13:58:38.769Z,65.25
2023-02-21T14:03:46.886Z,65.23
2023-02-21T14:09:02.074Z,65.39
2023-02-21T14:14:52.974Z,65.12
2023-02-21T14:20:28.707Z,65.59
2023-02-21T14:25:44.893Z,65.76
2023-02-21T14:31:54.749Z,64.25
2023-02-21T14:38:34.730Z,64.17
2023-02-21T14:45:04.346Z,62.22
2023-02-21T14:51:37.761Z,62.99
2023-02-21T14:57:50.021Z,64.33
2023-02-21T15:03:19.023Z,65.03
2023-02-21T15:08:26.517Z,66.00
2023-02-21T15:13:36.348Z,65.97
2023-02-21T15:19:06.815Z,65.98
2023-02-21T15:24:17.002Z,66.61
2023-02-21T15:29:21.774Z,66.40
2023-02-21T15:34:38.744Z,66.51
2023-02-21T15:39:57.673Z,66.73
2023-02-21T15:45:06.907Z,66.95
2023-02-21T15:50:48.499Z,67.40
2023-02-21T15:56:48.196Z,67.87
2023-02-21T16:02:26.757Z,66.96
2023-02-21T16:07:50.750Z,67.25
2023-02-21T16:13:02.750Z,67.85
2023-02-21T16:18:30.945Z,68.19
2023-02-21T16:23:46.699Z,68.45
2023-02-21T16:28:52.348Z,69.15
2023-02-21T16:33:57.896Z,69.82
2023-02-21T16:39:09.140Z,70.09
2023-02-21T16:44:31.875Z,69.63
2023-02-21T16:49:39.839Z,69.96
2023-02-21T16:55:21.880Z,69.91
2023-02-21T17:00:26.595Z,69.70
2023-02-21T17:05:36.284Z,69.78
2023-02-21T17:10:50.981Z,69.87
2023-02-21T17:16:09.225Z,69.44
2023-02-21T17:21:17.408Z,69.16
2023-02-21T17:26:24.497Z,69.15
2023-02-21T17:31:39.847Z,68.79
2023-02-21T17:36:47.013Z,68.71
2023-02-21T17:42:00.987Z,68.82
2023-02-21T17:47:09.652Z,68.89
2023-02-21T17:52:18.622Z,68.84
2023-02-21T17:57:31.553Z,68.83
2023-02-21T18:03:02.381Z,68.81
2023-02-21T18:09:06.179Z,69.07
2023-02-21T18:15:04.757Z,69.32
2023-02-21T18:20:26.186Z,69.80
2023-02-21T18:25:39.868Z,70.01
2023-02-21T18:30:52.160Z,70.47
2023-02-21T18:36:15.260Z,70.75
2023-02-21T18:41:27.770Z,70.73
2023-02-21T18:46:52.151Z,71.23
2023-02-21T18:52:05.041Z,71.78
2023-02-21T18:57:18.403Z,72.61
2023-02-21T19:02:25.871Z,73.24
2023-02-21T19:08:15.960Z,73.01
2023-02-21T19:13:50.704Z,72.44
2023-02-21T19:19:05.411Z,72.17
2023-02-21T19:24:34.348Z,72.35
2023-02-21T19:29:42.546Z,72.40
2023-02-21T19:41:38.897Z,72.11
2023-02-21T19:46:51.535Z,72.46
2023-02-21T19:52:05.342Z,72.93
2023-02-21T19:57:24.164Z,73.28
2023-02-21T20:02:37.938Z,73.59
2023-02-21T20:07:52.026Z,73.35
2023-02-21T20:13:03.701Z,73.40
2023-02-21T20:18:37.520Z,73.31
2023-02-21T20:23:46.924Z,73.31
2023-02-21T20:28:54.766Z,73.60
2023-02-21T20:34:10.386Z,73.87
2023-02-21T20:39:23.141Z,73.86
2023-02-21T20:44:32.691Z,74.15
2023-02-21T20:49:50.093Z,74.44
2023-02-21T20:55:03.399Z,74.62
2023-02-21T21:00:11.288Z,74.47
2023-02-21T21:05:54.679Z,74.88
2023-02-21T21:11:43.447Z,75.42
2023-02-21T21:16:53.383Z,76.13
2023-02-21T21:22:07.429Z,76.48
2023-02-21T21:27:15.773Z,76.85
2023-02-21T21:33:03.148Z,77.19
2023-02-21T21:38:09.011Z,76.73
2023-02-21T21:43:19.046Z,77.27
2023-02-21T21:48:27.300Z,77.49
2023-02-21T21:53:35.435Z,77.74
2023-02-21T21:58:44.416Z,77.52
2023-02-21T22:04:13.182Z,78.05
2023-02-21T22:09:26.694Z,78.26
2023-02-21T22:14:39.125Z,78.52
2023-02-21T22:19:47.971Z,77.96
2023-02-21T22:24:51.818Z,77.78
2023-02-21T22:29:58.022Z,77.84
2023-02-21T22:35:18.579Z,78.19
2023-02-21T22:40:24.892Z,78.76
2023-02-21T22:45:35.449Z,79.06
2023-02-21T22:51:02.895Z,79.58
2023-02-21T22:56:17.109Z,79.96
2023-02-21T23:01:28.476Z,79.81
2023-02-21T23:06:44.980Z,79.89
2023-02-21T23:11:51.724Z,80.46
2023-02-21T23:16:59.887Z,80.02
2023-02-21T23:22:36.900Z,80.32
2023-02-21T23:28:18.809Z,80.72
2023-02-21T23:34:05.185Z,81.04
2023-02-21T23:39:17.419Z,81.35
2023-02-21T23:44:25.149Z,81.44
2023-02-21T23:49:35.226Z,82.26
2023-02-21T23:54:41.431Z,83.20
2023-02-21T23:59:45.581Z,83.57
